Time;durP1;ratioP1;P1;durP2;ratioP2;P2;SDS_P1;SDS_P2;PMS_P1;PMS_P2;Temp;Humidity;BMP_temperature;BMP_pressure;BME280_temperature;BME280_humidity;BME280_pressure;Samples;Min_cycle;Max_cycle;Signal;HPM_P1;HPM_P2
2021/01/13 04:52:09;;;;;;;;;;;0.60;99.90;;;;;;5746894;22;20713;31
2021/01/13 05:58:51;;;;;;;;;;;0.00;99.90;;;;;;6157956;22;19931;31
2021/01/13 06:07:03;;;;;;;;;;;-0.10;99.90;;;;;;6217607;22;19957;31
2021/01/13 06:14:39;;;;;;;;;;;-0.10;99.90;;;;;;5372469;22;19970;-89
2021/01/13 06:20:02;;;;;;;;;;;-0.20;99.90;;;;;;5137735;22;19925;31
2021/01/13 06:22:31;;;;;;;;;;;-0.10;99.90;;;;;;5481537;23;19967;-87
2021/01/13 06:25:06;;;;;;;;;;;-0.20;99.90;;;;;;5168178;22;20023;-89
2021/01/13 06:27:43;;;;;;;;;;;-0.10;99.90;;;;;;5628518;22;19932;-81
2021/01/13 06:30:16;;;;;;;;;;;-0.20;99.90;;;;;;5426878;22;20881;-87
2021/01/13 06:38:26;;;;;;;;;;;-0.20;99.90;;;;;;5238253;22;20383;-87
2021/01/13 06:40:58;;;;;;;;;;;-0.20;99.90;;;;;;5072753;28;20358;-87
2021/01/13 06:43:26;;;;;;;;;;;-0.30;99.90;;;;;;5072250;28;20399;-88
2021/01/13 06:45:54;;;;;;;;;;;-0.20;99.90;;;;;;5072607;28;19909;-88
2021/01/13 06:48:25;;;;;;;;;;;-0.20;99.90;;;;;;5072547;28;19955;-88
2021/01/13 06:53:37;;;;;;;;;;;-0.30;99.90;;;;;;5084984;22;19929;-90
2021/01/13 06:56:13;;;;;;;;;;;-0.20;99.90;;;;;;5035108;28;20351;-88
2021/01/13 06:58:39;;;;;;;;;;;-0.30;99.90;;;;;;5052596;28;20022;-87
2021/01/13 07:01:08;;;;;;;;;;;-0.40;99.90;;;;;;5034976;28;20028;-87
2021/01/13 07:03:33;;;;;;;;;;;-0.30;99.90;;;;;;5034346;28;20278;-87
2021/01/13 07:06:08;;;;;;;;;;;-0.30;99.90;;;;;;5032692;28;19995;-88
2021/01/13 07:08:34;;;;;;;;;;;-0.30;99.90;;;;;;5034346;28;20025;-88
2021/01/13 07:11:03;;;;;;;;;;;-0.30;99.90;;;;;;5140781;22;19926;-79
2021/01/13 07:13:29;;;;;;;;;;;-0.30;99.90;;;;;;4995330;28;20344;-79
2021/01/13 07:15:58;;;;;;;;;;;-0.30;99.90;;;;;;4995314;28;19918;-79
2021/01/13 07:18:24;;;;;;;;;;;-0.40;99.90;;;;;;4995219;28;19909;-79
2021/01/13 07:20:49;;;;;;;;;;;-0.40;99.90;;;;;;4998123;28;19917;-80
2021/01/13 07:23:19;;;;;;;;;;;-0.40;99.90;;;;;;4998018;28;19916;-79
2021/01/13 07:30:54;;;;;;;;;;;-0.40;99.90;;;;;;5026995;28;19936;-88
2021/01/13 07:33:20;;;;;;;;;;;-0.40;99.90;;;;;;5017202;28;19920;-87
2021/01/13 07:35:51;;;;;;;;;;;-0.30;99.90;;;;;;5011013;28;19917;-89
2021/01/13 07:38:18;;;;;;;;;;;-0.30;99.90;;;;;;5436168;23;19972;-80
2021/01/13 07:43:38;;;;;;;;;;;-0.30;99.90;;;;;;5320917;22;20114;-80
2021/01/13 07:46:07;;;;;;;;;;;-0.20;99.90;;;;;;5015653;28;20244;-79
2021/01/13 07:48:55;;;;;;;;;;;-0.20;99.90;;;;;;5018222;28;20260;-80
2021/01/13 07:51:27;;;;;;;;;;;-0.20;99.90;;;;;;5015232;28;20047;-79
2021/01/13 07:54:06;;;;;;;;;;;-0.20;99.90;;;;;;5016637;28;19932;-80
2021/01/13 07:56:35;;;;;;;;;;;-0.20;99.90;;;;;;5014085;28;19964;-79
2021/01/13 07:59:10;;;;;;;;;;;-0.20;99.90;;;;;;5034909;28;19944;-78
2021/01/13 08:01:35;;;;;;;;;;;-0.10;99.90;;;;;;5109607;22;20400;-89
2021/01/13 08:04:16;;;;;;;;;;;-0.10;99.90;;;;;;4973947;28;19918;-89
2021/01/13 08:06:50;;;;;;;;;;;-0.10;99.90;;;;;;5305020;23;20459;-88
2021/01/13 08:09:17;;;;;;;;;;;-0.10;99.90;;;;;;5058935;28;19915;-88
2021/01/13 08:11:43;;;;;;;;;;;0.00;99.90;;;;;;5057830;28;19908;-88
2021/01/13 08:14:28;;;;;;;;;;;-0.10;99.90;;;;;;5058412;28;19987;-87
2021/01/13 08:17:16;;;;;;;;;;;-0.10;99.90;;;;;;5069299;28;19932;-88
2021/01/13 08:20:12;;;;;;;;;;;-0.10;99.90;;;;;;5075891;28;20255;-89
2021/01/13 08:22:40;;;;;;;;;;;0.00;99.90;;;;;;5062687;28;19920;-90
2021/01/13 08:25:18;;;;;;;;;;;0.00;99.90;;;;;;5052403;28;20334;-88
2021/01/13 08:27:54;;;;;;;;;;;0.00;99.90;;;;;;5052364;28;19917;-88
2021/01/13 08:30:24;;;;;;;;;;;0.00;99.90;;;;;;5054897;28;20367;-88
2021/01/13 08:32:53;;;;;;;;;;;0.10;99.90;;;;;;5046747;28;19912;-88
2021/01/13 08:35:25;;;;;;;;;;;0.10;99.90;;;;;;5166528;22;19968;-78
2021/01/13 08:38:04;;;;;;;;;;;0.10;99.90;;;;;;5050932;28;19919;-81
2021/01/13 08:40:29;;;;;;;;;;;0.10;99.90;;;;;;5049676;28;19910;-81
2021/01/13 08:43:14;;;;;;;;;;;0.10;99.90;;;;;;5313573;22;19931;-76
2021/01/13 08:45:44;;;;;;;;;;;0.10;99.90;;;;;;5110548;23;20012;-89
2021/01/13 08:48:10;;;;;;;;;;;0.10;99.90;;;;;;5445595;22;19929;-87
2021/01/13 08:50:39;;;;;;;;;;;0.20;99.90;;;;;;5021338;28;19924;-88
2021/01/13 08:55:51;;;;;;;;;;;0.20;99.90;;;;;;5292965;22;19944;-78
2021/01/13 09:03:44;;;;;;;;;;;0.30;99.90;;;;;;5438992;22;19928;-77
2021/01/13 09:06:25;;;;;;;;;;;0.30;99.90;;;;;;5161910;23;20019;-76
2021/01/13 09:08:55;;;;;;;;;;;0.30;99.90;;;;;;5056310;28;19913;-77
2021/01/13 09:11:31;;;;;;;;;;;0.30;99.90;;;;;;5054737;28;19909;-77
2021/01/13 09:14:15;;;;;;;;;;;0.30;99.90;;;;;;5055802;28;19917;-77
2021/01/13 09:16:46;;;;;;;;;;;0.40;99.90;;;;;;5055911;28;19962;-78
2021/01/13 09:19:12;;;;;;;;;;;0.50;99.90;;;;;;5055969;28;19966;-77
2021/01/13 09:21:43;;;;;;;;;;;0.50;99.90;;;;;;5055490;28;19912;-77
2021/01/13 09:24:17;;;;;;;;;;;0.50;99.90;;;;;;5055532;28;19962;-78
2021/01/13 09:26:49;;;;;;;;;;;0.50;99.90;;;;;;5156629;22;19925;-87
2021/01/13 09:29:16;;;;;;;;;;;0.50;99.90;;;;;;5030172;28;19964;-87
2021/01/13 09:31:41;;;;;;;;;;;0.60;99.90;;;;;;5332499;22;20007;-88
2021/01/13 09:34:08;;;;;;;;;;;0.60;99.90;;;;;;5040776;28;20011;-90
2021/01/13 09:39:16;;;;;;;;;;;0.90;99.90;;;;;;5487856;22;19993;-90
2021/01/13 09:41:54;;;;;;;;;;;1.00;99.90;;;;;;5032525;28;19968;-89
2021/01/13 09:44:20;;;;;;;;;;;1.10;99.90;;;;;;5012832;28;20296;-91
2021/01/13 09:46:46;;;;;;;;;;;1.10;99.90;;;;;;5129061;23;19917;-77
2021/01/13 09:49:12;;;;;;;;;;;1.20;99.90;;;;;;5666553;22;20724;-77
2021/01/13 09:51:38;;;;;;;;;;;1.30;99.90;;;;;;5669840;22;19924;-89
2021/01/13 09:54:06;;;;;;;;;;;1.30;99.90;;;;;;5166923;22;19924;-89
2021/01/13 09:56:33;;;;;;;;;;;1.40;99.90;;;;;;5053401;28;19919;-90
2021/01/13 10:38:28;;;;;;;;;;;2.20;99.90;;;;;;5023004;28;19929;-88
2021/01/13 10:40:56;;;;;;;;;;;2.20;99.90;;;;;;4997469;28;19917;-90
2021/01/13 10:43:22;;;;;;;;;;;2.30;99.90;;;;;;5000402;28;19925;-90
2021/01/13 10:45:57;;;;;;;;;;;2.30;99.90;;;;;;5001497;28;19914;-90
2021/01/13 10:48:23;;;;;;;;;;;2.30;99.90;;;;;;4991260;28;20224;-90
2021/01/13 10:50:49;;;;;;;;;;;2.40;99.90;;;;;;4987534;28;19952;-90
2021/01/13 10:53:15;;;;;;;;;;;2.40;99.90;;;;;;4981320;28;20451;-89
2021/01/13 10:55:44;;;;;;;;;;;2.50;99.90;;;;;;4984459;28;19914;-91
2021/01/13 10:58:11;;;;;;;;;;;2.60;99.90;;;;;;4985862;28;19910;-89
2021/01/13 11:00:37;;;;;;;;;;;2.70;99.90;;;;;;4990138;28;19914;-89
2021/01/13 11:03:03;;;;;;;;;;;2.70;99.90;;;;;;4989643;28;19921;-90
2021/01/13 11:05:34;;;;;;;;;;;2.70;99.90;;;;;;4991151;28;20008;-90
2021/01/13 11:08:06;;;;;;;;;;;2.80;99.90;;;;;;4985257;28;20088;-89
2021/01/13 11:10:36;;;;;;;;;;;2.90;99.90;;;;;;4990332;28;19914;-88
2021/01/13 11:13:08;;;;;;;;;;;2.90;99.90;;;;;;4990432;28;19964;-90
2021/01/13 11:15:37;;;;;;;;;;;3.00;99.90;;;;;;4990052;28;19929;-91
2021/01/13 11:18:10;;;;;;;;;;;3.00;99.90;;;;;;4982786;28;19914;-90
2021/01/13 11:27:21;;;;;;;;;;;2.90;99.90;;;;;;5075914;22;20766;-80
2021/01/13 11:29:52;;;;;;;;;;;2.90;99.90;;;;;;5054344;28;19925;-79
2021/01/13 11:32:19;;;;;;;;;;;2.90;99.90;;;;;;5054875;28;20465;-80
2021/01/13 11:34:49;;;;;;;;;;;2.90;99.90;;;;;;5054918;28;19928;-80
2021/01/13 11:37:32;;;;;;;;;;;3.00;99.90;;;;;;5073060;28;19919;-80
2021/01/13 11:40:01;;;;;;;;;;;3.00;99.90;;;;;;5040676;28;20010;-80
2021/01/13 11:42:39;;;;;;;;;;;3.00;99.90;;;;;;5054750;28;20447;-79
2021/01/13 11:45:12;;;;;;;;;;;3.00;99.90;;;;;;5054621;28;20200;-79
2021/01/13 11:47:40;;;;;;;;;;;3.00;99.90;;;;;;5054671;28;19920;-79
2021/01/13 11:50:14;;;;;;;;;;;3.10;99.90;;;;;;5054982;28;20415;-79
2021/01/13 11:52:41;;;;;;;;;;;3.00;99.90;;;;;;5054883;28;19966;-80
2021/01/13 11:55:07;;;;;;;;;;;3.00;99.90;;;;;;5055111;28;19921;-79
2021/01/13 11:57:36;;;;;;;;;;;3.00;99.90;;;;;;5330935;22;19919;-79
2021/01/13 12:00:13;;;;;;;;;;;3.00;99.90;;;;;;5072052;28;19991;-79
2021/01/13 12:08:17;;;;;;;;;;;3.00;99.90;;;;;;5328829;22;19929;-89
2021/01/13 12:10:43;;;;;;;;;;;3.10;99.90;;;;;;5038632;28;19917;-87
2021/01/13 12:13:10;;;;;;;;;;;3.10;99.90;;;;;;5055779;28;19962;-86
2021/01/13 12:16:05;;;;;;;;;;;3.10;99.90;;;;;;5055368;28;19921;-88
2021/01/13 12:18:33;;;;;;;;;;;3.10;99.90;;;;;;5021480;28;19959;-87
2021/01/13 12:21:02;;;;;;;;;;;3.10;99.90;;;;;;5031391;28;20011;-88
2021/01/13 12:23:35;;;;;;;;;;;3.10;99.90;;;;;;5178483;23;20303;-88
2021/01/13 12:26:27;;;;;;;;;;;3.10;99.90;;;;;;5029366;28;19920;-87
2021/01/13 12:28:56;;;;;;;;;;;3.10;99.90;;;;;;5031370;28;19909;-87
2021/01/13 12:31:35;;;;;;;;;;;3.20;99.90;;;;;;5029635;28;19909;-86
2021/01/13 12:34:01;;;;;;;;;;;3.20;99.90;;;;;;5026573;28;19960;-87
2021/01/13 12:36:28;;;;;;;;;;;3.20;99.90;;;;;;5034122;28;19948;-88
2021/01/13 12:38:57;;;;;;;;;;;3.20;99.90;;;;;;5035359;28;19924;-88
2021/01/13 12:41:24;;;;;;;;;;;3.20;99.90;;;;;;5034791;28;19909;-87
2021/01/13 12:43:52;;;;;;;;;;;3.20;99.90;;;;;;5033903;28;19920;-89
2021/01/13 12:46:27;;;;;;;;;;;3.20;99.90;;;;;;5033444;28;19909;-89
2021/01/13 12:48:53;;;;;;;;;;;3.20;99.90;;;;;;5151832;22;19923;-79
2021/01/13 12:51:19;;;;;;;;;;;3.20;99.90;;;;;;5027370;28;19929;-81
2021/01/13 12:53:46;;;;;;;;;;;3.20;99.90;;;;;;5030461;28;19929;-79
2021/01/13 12:56:19;;;;;;;;;;;3.20;99.90;;;;;;5029849;28;20378;-80
2021/01/13 12:58:45;;;;;;;;;;;3.20;99.90;;;;;;5030443;28;19913;-79
2021/01/13 13:01:11;;;;;;;;;;;3.20;99.90;;;;;;5030430;28;20307;-79
2021/01/13 13:03:36;;;;;;;;;;;3.20;99.90;;;;;;5029551;28;19918;-79
2021/01/13 13:06:04;;;;;;;;;;;3.20;99.90;;;;;;5026485;28;20059;-79
2021/01/13 13:11:16;;;;;;;;;;;3.10;99.90;;;;;;5085294;22;19929;-81
2021/01/13 13:13:42;;;;;;;;;;;3.10;99.90;;;;;;5065306;28;19925;-80
2021/01/13 13:16:10;;;;;;;;;;;3.10;99.90;;;;;;5067633;28;19913;-80
2021/01/13 13:18:38;;;;;;;;;;;3.10;99.90;;;;;;5161619;22;20460;-79
2021/01/13 13:21:17;;;;;;;;;;;3.10;99.90;;;;;;5029775;28;19913;-79
2021/01/13 13:23:45;;;;;;;;;;;3.10;99.90;;;;;;5049007;28;20414;-79
2021/01/13 13:26:12;;;;;;;;;;;3.20;99.90;;;;;;5046806;28;20359;-78
2021/01/13 13:28:37;;;;;;;;;;;3.20;99.90;;;;;;5033161;28;19920;-80
2021/01/13 13:31:04;;;;;;;;;;;3.30;99.90;;;;;;5049631;28;19938;-79
2021/01/13 13:33:32;;;;;;;;;;;3.30;99.90;;;;;;5033426;28;20510;-79
2021/01/13 13:35:57;;;;;;;;;;;3.40;99.90;;;;;;5033243;28;19936;-79
2021/01/13 13:43:40;;;;;;;;;;;3.50;99.90;;;;;;5102686;23;19932;-80
2021/01/13 13:46:07;;;;;;;;;;;3.60;99.90;;;;;;5068351;28;20390;-80
2021/01/13 13:48:35;;;;;;;;;;;3.70;99.90;;;;;;5063608;28;19920;-80
2021/01/13 13:51:02;;;;;;;;;;;3.70;99.90;;;;;;5064192;28;19912;-80
2021/01/13 13:53:32;;;;;;;;;;;3.70;99.90;;;;;;5069960;28;20215;-79
2021/01/13 13:56:01;;;;;;;;;;;3.70;99.90;;;;;;5058471;28;19958;-80
2021/01/13 13:58:30;;;;;;;;;;;3.60;99.90;;;;;;5054867;28;19919;-78
2021/01/13 14:09:48;;;;;;;;;;;3.40;99.90;;;;;;5044990;28;19970;-80
2021/01/13 14:12:14;;;;;;;;;;;3.40;99.90;;;;;;5066624;28;19921;-80
2021/01/13 14:14:39;;;;;;;;;;;3.40;99.90;;;;;;5042745;28;19927;-80
2021/01/13 14:17:06;;;;;;;;;;;3.30;99.90;;;;;;5048442;28;20380;-80
2021/01/13 14:19:32;;;;;;;;;;;3.30;99.90;;;;;;5040041;28;20371;-82
2021/01/13 14:21:58;;;;;;;;;;;3.30;99.90;;;;;;5050675;28;19912;-78
2021/01/13 14:24:24;;;;;;;;;;;3.30;99.90;;;;;;5045444;28;19920;-79
2021/01/13 14:26:50;;;;;;;;;;;3.20;99.90;;;;;;5048452;28;20248;-80
2021/01/13 14:29:15;;;;;;;;;;;3.20;99.90;;;;;;5048349;28;19948;-79
2021/01/13 14:31:41;;;;;;;;;;;3.20;99.90;;;;;;5036126;28;19913;-80
2021/01/13 14:34:06;;;;;;;;;;;3.10;99.90;;;;;;5162628;22;20671;-80
2021/01/13 14:36:34;;;;;;;;;;;3.10;99.90;;;;;;5069099;28;19917;-80
2021/01/13 14:39:00;;;;;;;;;;;3.10;99.90;;;;;;5057247;28;19913;-80
2021/01/13 14:41:29;;;;;;;;;;;3.10;99.90;;;;;;5065830;28;19982;-81
2021/01/13 14:46:28;;;;;;;;;;;3.00;99.90;;;;;;5027841;28;19968;-80
2021/01/13 14:48:54;;;;;;;;;;;3.00;99.90;;;;;;5028570;28;19963;-81
2021/01/13 14:51:25;;;;;;;;;;;3.00;99.90;;;;;;5011862;28;19918;-80
2021/01/13 14:53:51;;;;;;;;;;;2.90;99.90;;;;;;5021293;28;20019;-80
2021/01/13 14:56:16;;;;;;;;;;;2.90;99.90;;;;;;5023646;28;19936;-80
2021/01/13 14:58:42;;;;;;;;;;;2.80;99.90;;;;;;4998246;28;19952;-79
2021/01/13 15:01:10;;;;;;;;;;;2.80;99.90;;;;;;5012025;28;20414;-80
2021/01/13 15:03:35;;;;;;;;;;;2.80;99.90;;;;;;5010713;28;20008;-80
2021/01/13 15:06:01;;;;;;;;;;;2.80;99.90;;;;;;4998426;28;20016;-81
2021/01/13 15:08:27;;;;;;;;;;;2.70;99.90;;;;;;5010688;28;20261;-81
2021/01/13 15:10:52;;;;;;;;;;;2.70;99.90;;;;;;5011563;28;19963;-79
2021/01/13 15:13:18;;;;;;;;;;;2.70;99.90;;;;;;5014997;28;20182;-80
2021/01/13 15:15:50;;;;;;;;;;;2.60;99.90;;;;;;5008510;28;19968;-79
2021/01/13 15:37:17;;;;;;;;;;;2.40;99.90;;;;;;5004423;28;19935;-79
2021/01/13 15:39:45;;;;;;;;;;;2.40;99.90;;;;;;5005143;28;20016;-79
2021/01/13 15:42:10;;;;;;;;;;;2.40;99.90;;;;;;4991745;28;20770;-79
2021/01/13 15:44:36;;;;;;;;;;;2.40;99.90;;;;;;5007974;28;20216;-80
2021/01/13 15:47:02;;;;;;;;;;;2.30;99.90;;;;;;5008512;28;19921;-83
2021/01/13 15:49:31;;;;;;;;;;;2.30;99.90;;;;;;5007483;28;19956;-80
2021/01/13 15:51:57;;;;;;;;;;;2.40;99.90;;;;;;5001191;28;19914;-79
2021/01/13 15:54:22;;;;;;;;;;;2.30;99.90;;;;;;5011654;28;19967;-79
2021/01/13 15:56:48;;;;;;;;;;;2.20;99.90;;;;;;5010434;28;19924;-79
2021/01/13 15:59:20;;;;;;;;;;;2.20;99.90;;;;;;5023299;28;19913;-79
2021/01/13 16:01:45;;;;;;;;;;;2.20;99.90;;;;;;5007467;28;19945;-79
2021/01/13 16:04:13;;;;;;;;;;;2.20;99.90;;;;;;5007735;28;20329;-79
2021/01/13 16:06:39;;;;;;;;;;;2.20;99.90;;;;;;5025110;28;20376;-80
2021/01/13 16:09:08;;;;;;;;;;;2.20;99.90;;;;;;4984065;28;19913;-80
2021/01/13 16:11:34;;;;;;;;;;;2.20;99.90;;;;;;5010748;28;19921;-79
2021/01/13 16:14:05;;;;;;;;;;;2.20;99.90;;;;;;5011111;28;19968;-79
2021/01/13 16:16:30;;;;;;;;;;;2.20;99.90;;;;;;5011621;28;19940;-79
2021/01/13 16:18:56;;;;;;;;;;;2.20;99.90;;;;;;5010523;28;20004;-80
2021/01/13 16:21:22;;;;;;;;;;;2.10;99.90;;;;;;5010442;28;19920;-80
2021/01/13 16:23:50;;;;;;;;;;;2.10;99.90;;;;;;5010587;28;19919;-80
2021/01/13 16:26:17;;;;;;;;;;;2.10;99.90;;;;;;5008869;28;19959;-81
2021/01/13 16:28:42;;;;;;;;;;;2.20;99.90;;;;;;5011108;28;19913;-80
2021/01/13 16:31:08;;;;;;;;;;;2.20;99.90;;;;;;5011361;28;20237;-79
2021/01/13 16:33:36;;;;;;;;;;;2.10;99.90;;;;;;5012624;28;19917;-79
2021/01/13 16:36:03;;;;;;;;;;;2.10;99.90;;;;;;5427904;22;19947;-80
2021/01/13 16:38:28;;;;;;;;;;;2.10;99.90;;;;;;5039969;28;20134;-81
2021/01/13 16:40:54;;;;;;;;;;;2.10;99.90;;;;;;5033865;28;20207;-80
2021/01/13 16:43:20;;;;;;;;;;;2.10;99.90;;;;;;5034101;28;19920;-80
2021/01/13 16:45:47;;;;;;;;;;;2.10;99.90;;;;;;5040852;28;19932;-79
2021/01/13 16:48:15;;;;;;;;;;;2.10;99.90;;;;;;5156681;23;19928;-79
2021/01/13 16:50:42;;;;;;;;;;;2.10;99.90;;;;;;5181306;22;19912;-79
2021/01/13 16:53:10;;;;;;;;;;;2.10;99.90;;;;;;5067924;28;19995;-79
2021/01/13 16:55:39;;;;;;;;;;;2.10;99.90;;;;;;5067987;28;19927;-80
2021/01/13 16:58:07;;;;;;;;;;;2.10;99.90;;;;;;5066161;28;20529;-80
2021/01/13 17:00:35;;;;;;;;;;;2.10;99.90;;;;;;5065955;28;19927;-80
2021/01/13 18:52:30;;;;;;;;;;;2.60;99.90;;;;;;5026016;28;20036;-80
2021/01/13 18:54:56;;;;;;;;;;;2.60;99.90;;;;;;5030866;28;19925;-80
2021/01/13 18:57:21;;;;;;;;;;;2.60;99.90;;;;;;5030895;28;19963;-79
2021/01/13 18:59:47;;;;;;;;;;;2.60;99.90;;;;;;5151963;22;19936;-80
2021/01/13 19:02:13;;;;;;;;;;;2.60;99.90;;;;;;5046794;28;19912;-79
2021/01/13 19:04:41;;;;;;;;;;;2.60;99.90;;;;;;5035436;28;20318;-80
2021/01/13 19:07:11;;;;;;;;;;;2.60;99.90;;;;;;5025566;28;20263;-78
2021/01/13 19:09:37;;;;;;;;;;;2.60;99.90;;;;;;5034833;28;19909;-80
2021/01/13 19:12:02;;;;;;;;;;;2.60;99.90;;;;;;5038893;28;19908;-80
2021/01/13 19:14:28;;;;;;;;;;;2.50;99.90;;;;;;5035322;28;19936;-79
2021/01/13 19:16:53;;;;;;;;;;;2.50;99.90;;;;;;5034208;28;19921;-80
2021/01/13 19:19:19;;;;;;;;;;;2.50;99.90;;;;;;5036995;28;19920;-79
2021/01/13 19:21:45;;;;;;;;;;;2.50;99.90;;;;;;5048748;28;19909;-79
2021/01/13 19:24:10;;;;;;;;;;;2.50;99.90;;;;;;5052186;28;19909;-80
2021/01/13 19:26:42;;;;;;;;;;;2.50;99.90;;;;;;5169152;22;19978;-88
2021/01/13 19:29:08;;;;;;;;;;;2.50;99.90;;;;;;5060852;28;19912;-88
2021/01/13 19:31:34;;;;;;;;;;;2.50;99.90;;;;;;5050780;28;19951;-88
2021/01/13 19:34:00;;;;;;;;;;;2.50;99.90;;;;;;5063588;28;19995;-88
2021/01/13 19:36:29;;;;;;;;;;;2.50;99.90;;;;;;5069297;28;19913;-88
2021/01/13 19:38:55;;;;;;;;;;;2.50;99.90;;;;;;5169471;22;20442;-82
2021/01/13 19:41:20;;;;;;;;;;;2.50;99.90;;;;;;5053828;28;19981;-82
2021/01/13 19:43:49;;;;;;;;;;;2.40;99.90;;;;;;5054791;28;19909;-84
2021/01/13 19:46:15;;;;;;;;;;;2.50;99.90;;;;;;5054559;28;19913;-81
2021/01/13 19:48:41;;;;;;;;;;;2.50;99.90;;;;;;5057265;28;19939;-81
2021/01/13 19:51:07;;;;;;;;;;;2.50;99.90;;;;;;5325399;22;19924;-89
2021/01/13 19:53:35;;;;;;;;;;;2.50;99.90;;;;;;5155089;22;19932;-81
2021/01/13 19:56:04;;;;;;;;;;;2.50;99.90;;;;;;5040264;28;19959;-82
2021/01/13 19:58:30;;;;;;;;;;;2.50;99.90;;;;;;5274875;22;19909;-82
2021/01/13 20:00:58;;;;;;;;;;;2.50;99.90;;;;;;5069802;28;19921;-80
2021/01/13 20:03:24;;;;;;;;;;;2.50;99.90;;;;;;5072184;28;19920;-81
2021/01/13 20:05:49;;;;;;;;;;;2.50;99.90;;;;;;5075161;28;20355;-81
2021/01/13 20:08:15;;;;;;;;;;;2.60;99.90;;;;;;5175569;22;20333;-79
2021/01/13 20:10:43;;;;;;;;;;;2.60;99.90;;;;;;5040089;28;19967;-81
2021/01/13 20:13:08;;;;;;;;;;;2.60;99.90;;;;;;5065639;28;19913;-80
2021/01/13 20:15:39;;;;;;;;;;;2.50;99.90;;;;;;5053144;28;20359;-81
2021/01/13 20:18:04;;;;;;;;;;;2.60;99.90;;;;;;5158423;22;19929;-81
2021/01/13 20:20:33;;;;;;;;;;;2.60;99.90;;;;;;5040199;28;20390;-80
2021/01/13 20:22:58;;;;;;;;;;;2.60;99.90;;;;;;5037550;28;19912;-81
2021/01/13 20:25:25;;;;;;;;;;;2.60;99.90;;;;;;5153034;22;19993;-80
2021/01/13 20:28:01;;;;;;;;;;;2.50;99.90;;;;;;5145841;22;19975;-79
2021/01/13 20:30:27;;;;;;;;;;;2.50;99.90;;;;;;5028756;28;19913;-80
2021/01/13 20:32:57;;;;;;;;;;;2.50;99.90;;;;;;5037343;28;19963;-81
2021/01/13 20:35:22;;;;;;;;;;;2.50;99.90;;;;;;5037717;28;19919;-81
2021/01/13 20:37:49;;;;;;;;;;;2.50;99.90;;;;;;5037302;28;19913;-79
2021/01/13 20:40:16;;;;;;;;;;;2.50;99.90;;;;;;5146009;22;20440;-80
2021/01/13 20:42:42;;;;;;;;;;;2.50;99.90;;;;;;5163133;22;19939;-81
2021/01/13 20:45:08;;;;;;;;;;;2.50;99.90;;;;;;5057324;28;19912;-80
2021/01/13 20:47:38;;;;;;;;;;;2.60;99.90;;;;;;5057253;28;19909;-80
2021/01/13 20:50:07;;;;;;;;;;;2.60;99.90;;;;;;5057039;28;19909;-80
2021/01/13 20:55:08;;;;;;;;;;;2.60;99.90;;;;;;5452164;22;19932;-82
2021/01/13 20:57:34;;;;;;;;;;;2.60;99.90;;;;;;5037348;28;19916;-80
2021/01/13 20:59:59;;;;;;;;;;;2.50;99.90;;;;;;5037492;28;19919;-81
2021/01/13 21:02:25;;;;;;;;;;;2.60;99.90;;;;;;5037471;28;20015;-80
2021/01/13 21:04:51;;;;;;;;;;;2.50;99.90;;;;;;5037612;28;19916;-80
2021/01/13 21:07:16;;;;;;;;;;;2.50;99.90;;;;;;5035450;28;19909;-80
2021/01/13 21:09:46;;;;;;;;;;;2.50;99.90;;;;;;5031598;28;19919;-80
2021/01/13 21:12:12;;;;;;;;;;;2.50;99.90;;;;;;5032385;28;19909;-81
2021/01/13 21:14:38;;;;;;;;;;;2.50;99.90;;;;;;5032701;28;20015;-81
2021/01/13 21:17:04;;;;;;;;;;;2.60;99.90;;;;;;5036826;28;19921;-81
2021/01/13 21:19:29;;;;;;;;;;;2.60;99.90;;;;;;5309275;23;19920;-81
2021/01/13 21:21:55;;;;;;;;;;;2.70;99.90;;;;;;5056513;28;19913;-80
2021/01/13 21:32:32;;;;;;;;;;;2.70;99.90;;;;;;2971249;22;20218;-77
2021/01/13 21:34:58;;;;;;;;;;;2.80;99.90;;;;;;5296825;22;19924;-82
2021/01/13 21:37:24;;;;;;;;;;;2.90;99.90;;;;;;5042472;28;19923;-81
2021/01/13 21:55:08;;;;;;;;;;;3.10;99.90;;;;;;5835417;22;20029;-80
2021/01/13 22:50:52;;;;;;;;;;;3.70;99.90;;;;;;5597446;22;20309;31
2021/01/13 22:55:59;;;;;;;;;;;3.70;99.90;;;;;;5455096;22;19925;-78
2021/01/13 22:58:27;;;;;;;;;;;3.70;99.90;;;;;;5841003;22;20325;-81
2021/01/13 23:00:55;;;;;;;;;;;3.60;99.90;;;;;;5062197;28;19925;-84
2021/01/13 23:08:39;;;;;;;;;;;3.60;99.90;;;;;;5214740;22;19928;-78
2021/01/13 23:11:04;;;;;;;;;;;3.70;99.90;;;;;;5072596;28;19919;-80
2021/01/13 23:18:49;;;;;;;;;;;3.60;99.90;;;;;;5197142;22;19931;-81
2021/01/13 23:21:14;;;;;;;;;;;3.60;99.90;;;;;;5065647;28;20386;-82
2021/01/13 23:23:40;;;;;;;;;;;3.60;99.90;;;;;;5070695;28;19935;-81
2021/01/13 23:26:05;;;;;;;;;;;3.60;99.90;;;;;;5074735;28;19909;-82
2021/01/13 23:28:34;;;;;;;;;;;3.60;99.90;;;;;;5076266;28;19931;-82
2021/01/13 23:31:00;;;;;;;;;;;3.60;99.90;;;;;;5170718;22;19993;-80
2021/01/13 23:33:25;;;;;;;;;;;3.60;99.90;;;;;;5038782;28;19991;-79
2021/01/13 23:35:54;;;;;;;;;;;3.50;99.90;;;;;;5273026;22;19998;-80
2021/01/13 23:38:19;;;;;;;;;;;3.60;99.90;;;;;;5309490;23;20301;-81
2021/01/13 23:40:45;;;;;;;;;;;3.50;99.90;;;;;;5046691;28;19916;-80
2021/01/13 23:43:17;;;;;;;;;;;3.60;99.90;;;;;;5038277;28;20345;-80
2021/01/13 23:45:43;;;;;;;;;;;3.60;99.90;;;;;;5038522;28;19912;-79
2021/01/13 23:48:10;;;;;;;;;;;3.60;99.90;;;;;;5037947;28;19916;-80
2021/01/13 23:50:35;;;;;;;;;;;3.60;99.90;;;;;;5038702;28;20379;-80
2021/01/13 23:53:01;;;;;;;;;;;3.60;99.90;;;;;;5038245;28;19909;-81
2021/01/13 23:55:26;;;;;;;;;;;3.50;99.90;;;;;;5038461;28;19987;-80
2021/01/13 23:57:53;;;;;;;;;;;3.50;99.90;;;;;;5038103;28;20000;-79
